sensor_id;sensor_type;location;lat;lon;timestamp;temperature;humidity
10042;DHT22;5061;49.068;12.058;2023-06-14T00:01:53;16.70;99.90
10042;DHT22;5061;49.068;12.058;2023-06-14T00:05:15;16.60;99.90
10042;DHT22;5061;49.068;12.058;2023-06-14T00:08:36;16.50;99.90
10042;DHT22;5061;49.068;12.058;2023-06-14T00:11:57;16.50;99.90
10042;DHT22;5061;49.068;12.058;2023-06-14T00:15:17;16.40;99.90
10042;DHT22;5061;49.068;12.058;2023-06-14T00:18:38;16.40;99.90
10042;DHT22;5061;49.068;12.058;2023-06-14T00:21:59;16.30;99.90
10042;DHT22;5061;49.068;12.058;2023-06-14T00:25:19;16.20;99.90
10042;DHT22;5061;49.068;12.058;2023-06-14T00:28:40;16.20;99.90
10042;DHT22;5061;49.068;12.058;2023-06-14T00:32:01;16.10;99.90
10042;DHT22;5061;49.068;12.058;2023-06-14T00:35:22;16.00;99.90
10042;DHT22;5061;49.068;12.058;2023-06-14T00:38:42;16.00;99.90
10042;DHT22;5061;49.068;12.058;2023-06-14T00:42:03;15.90;99.90
10042;DHT22;5061;49.068;12.058;2023-06-14T00:45:25;15.80;99.90
10042;DHT22;5061;49.068;12.058;2023-06-14T00:48:47;15.80;99.90
10042;DHT22;5061;49.068;12.058;2023-06-14T00:52:08;15.80;99.90
10042;DHT22;5061;49.068;12.058;2023-06-14T00:55:32;15.70;99.90
10042;DHT22;5061;49.068;12.058;2023-06-14T00:58:53;15.70;99.90
10042;DHT22;5061;49.068;12.058;2023-06-14T01:02:14;15.70;99.90
10042;DHT22;5061;49.068;12.058;2023-06-14T01:05:35;15.60;99.90
10042;DHT22;5061;49.068;12.058;2023-06-14T01:16:08;15.50;99.90
10042;DHT22;5061;49.068;12.058;2023-06-14T01:19:30;15.50;99.90
10042;DHT22;5061;49.068;12.058;2023-06-14T01:22:55;15.50;99.90
10042;DHT22;5061;49.068;12.058;2023-06-14T01:26:15;15.40;99.90
10042;DHT22;5061;49.068;12.058;2023-06-14T01:29:36;15.40;99.90
10042;DHT22;5061;49.068;12.058;2023-06-14T01:32:58;15.30;99.90
10042;DHT22;5061;49.068;12.058;2023-06-14T01:36:19;15.20;99.90
10042;DHT22;5061;49.068;12.058;2023-06-14T01:39:43;15.20;99.90
10042;DHT22;5061;49.068;12.058;2023-06-14T01:43:04;15.10;99.90
10042;DHT22;5061;49.068;12.058;2023-06-14T01:46:26;15.10;99.90
10042;DHT22;5061;49.068;12.058;2023-06-14T01:49:47;15.10;99.90
10042;DHT22;5061;49.068;12.058;2023-06-14T01:53:08;15.00;99.90
10042;DHT22;5061;49.068;12.058;2023-06-14T01:56:29;15.00;99.90
10042;DHT22;5061;49.068;12.058;2023-06-14T01:59:49;14.90;99.90
10042;DHT22;5061;49.068;12.058;2023-06-14T02:03:11;14.90;99.90
10042;DHT22;5061;49.068;12.058;2023-06-14T02:06:32;14.80;99.90
10042;DHT22;5061;49.068;12.058;2023-06-14T02:09:53;14.70;99.90
10042;DHT22;5061;49.068;12.058;2023-06-14T02:13:14;14.70;99.90
10042;DHT22;5061;49.068;12.058;2023-06-14T02:16:35;14.60;99.90
10042;DHT22;5061;49.068;12.058;2023-06-14T02:19:56;14.60;99.90
10042;DHT22;5061;49.068;12.058;2023-06-14T02:23:17;14.60;99.90
10042;DHT22;5061;49.068;12.058;2023-06-14T02:26:38;14.60;99.90
10042;DHT22;5061;49.068;12.058;2023-06-14T02:29:59;14.50;99.90
10042;DHT22;5061;49.068;12.058;2023-06-14T02:33:20;14.50;99.90
10042;DHT22;5061;49.068;12.058;2023-06-14T02:36:42;14.50;99.90
10042;DHT22;5061;49.068;12.058;2023-06-14T02:40:03;14.50;99.90
10042;DHT22;5061;49.068;12.058;2023-06-14T02:43:24;14.40;99.90
10042;DHT22;5061;49.068;12.058;2023-06-14T02:46:45;14.40;99.90
10042;DHT22;5061;49.068;12.058;2023-06-14T02:50:07;14.40;99.90
10042;DHT22;5061;49.068;12.058;2023-06-14T02:53:28;14.30;99.90
10042;DHT22;5061;49.068;12.058;2023-06-14T02:56:48;14.30;99.90
10042;DHT22;5061;49.068;12.058;2023-06-14T03:00:09;14.30;99.90
10042;DHT22;5061;49.068;12.058;2023-06-14T03:03:33;14.20;99.90
10042;DHT22;5061;49.068;12.058;2023-06-14T03:06:54;14.20;99.90
10042;DHT22;5061;49.068;12.058;2023-06-14T03:10:14;14.10;99.90
10042;DHT22;5061;49.068;12.058;2023-06-14T03:13:35;14.10;99.90
10042;DHT22;5061;49.068;12.058;2023-06-14T03:16:56;14.10;99.90
10042;DHT22;5061;49.068;12.058;2023-06-14T03:20:17;14.00;99.90
10042;DHT22;5061;49.068;12.058;2023-06-14T03:23:37;14.00;99.90
10042;DHT22;5061;49.068;12.058;2023-06-14T03:26:58;14.00;99.90
10042;DHT22;5061;49.068;12.058;2023-06-14T03:30:19;14.00;99.90
10042;DHT22;5061;49.068;12.058;2023-06-14T03:33:40;13.90;99.90
10042;DHT22;5061;49.068;12.058;2023-06-14T03:37:00;14.00;99.90
10042;DHT22;5061;49.068;12.058;2023-06-14T03:40:21;14.00;99.90
10042;DHT22;5061;49.068;12.058;2023-06-14T03:43:42;13.90;99.90
10042;DHT22;5061;49.068;12.058;2023-06-14T03:47:03;13.90;99.90
10042;DHT22;5061;49.068;12.058;2023-06-14T03:50:23;13.80;99.90
10042;DHT22;5061;49.068;12.058;2023-06-14T03:53:44;13.80;99.90
10042;DHT22;5061;49.068;12.058;2023-06-14T03:57:05;13.80;99.90
10042;DHT22;5061;49.068;12.058;2023-06-14T04:00:26;13.80;99.90
10042;DHT22;5061;49.068;12.058;2023-06-14T04:03:47;13.70;99.90
10042;DHT22;5061;49.068;12.058;2023-06-14T04:07:07;13.70;99.90
10042;DHT22;5061;49.068;12.058;2023-06-14T04:10:29;13.70;99.90
10042;DHT22;5061;49.068;12.058;2023-06-14T04:13:49;13.80;99.90
10042;DHT22;5061;49.068;12.058;2023-06-14T04:17:10;13.80;99.90
10042;DHT22;5061;49.068;12.058;2023-06-14T04:20:30;13.80;99.90
10042;DHT22;5061;49.068;12.058;2023-06-14T04:23:51;13.80;99.90
10042;DHT22;5061;49.068;12.058;2023-06-14T04:27:13;13.90;99.90
10042;DHT22;5061;49.068;12.058;2023-06-14T04:30:35;13.90;99.90
10042;DHT22;5061;49.068;12.058;2023-06-14T04:33:56;13.90;99.90
10042;DHT22;5061;49.068;12.058;2023-06-14T04:37:17;14.00;99.90
10042;DHT22;5061;49.068;12.058;2023-06-14T04:40:38;14.00;99.90
10042;DHT22;5061;49.068;12.058;2023-06-14T04:44:06;13.90;99.90
10042;DHT22;5061;49.068;12.058;2023-06-14T04:50:58;14.00;99.90
10042;DHT22;5061;49.068;12.058;2023-06-14T04:54:18;14.10;99.90
10042;DHT22;5061;49.068;12.058;2023-06-14T04:57:40;14.20;99.90
10042;DHT22;5061;49.068;12.058;2023-06-14T05:01:01;14.20;99.90
10042;DHT22;5061;49.068;12.058;2023-06-14T05:04:22;14.30;99.90
10042;DHT22;5061;49.068;12.058;2023-06-14T05:07:43;14.40;99.90
10042;DHT22;5061;49.068;12.058;2023-06-14T05:11:04;14.40;99.90
10042;DHT22;5061;49.068;12.058;2023-06-14T05:14:25;14.50;99.90
10042;DHT22;5061;49.068;12.058;2023-06-14T05:17:47;14.50;99.90
10042;DHT22;5061;49.068;12.058;2023-06-14T05:21:15;14.70;99.90
10042;DHT22;5061;49.068;12.058;2023-06-14T05:24:38;14.80;99.90
10042;DHT22;5061;49.068;12.058;2023-06-14T05:27:58;14.90;99.90
10042;DHT22;5061;49.068;12.058;2023-06-14T05:31:19;15.10;99.90
10042;DHT22;5061;49.068;12.058;2023-06-14T05:34:40;15.20;99.90
10042;DHT22;5061;49.068;12.058;2023-06-14T05:38:01;15.30;99.90
10042;DHT22;5061;49.068;12.058;2023-06-14T05:41:21;15.40;99.90
10042;DHT22;5061;49.068;12.058;2023-06-14T05:44:42;15.60;99.90
10042;DHT22;5061;49.068;12.058;2023-06-14T05:48:02;15.70;99.90
10042;DHT22;5061;49.068;12.058;2023-06-14T05:51:23;15.80;99.90
10042;DHT22;5061;49.068;12.058;2023-06-14T05:54:45;15.90;99.90
10042;DHT22;5061;49.068;12.058;2023-06-14T05:58:05;16.00;99.90
10042;DHT22;5061;49.068;12.058;2023-06-14T06:01:26;16.00;99.90
10042;DHT22;5061;49.068;12.058;2023-06-14T06:04:46;16.20;99.90
10042;DHT22;5061;49.068;12.058;2023-06-14T06:08:07;16.20;99.90
10042;DHT22;5061;49.068;12.058;2023-06-14T06:11:28;16.30;99.90
10042;DHT22;5061;49.068;12.058;2023-06-14T06:14:48;16.30;99.90
10042;DHT22;5061;49.068;12.058;2023-06-14T06:18:09;16.40;99.90
10042;DHT22;5061;49.068;12.058;2023-06-14T06:21:30;16.40;99.90
10042;DHT22;5061;49.068;12.058;2023-06-14T06:24:50;16.40;99.90
10042;DHT22;5061;49.068;12.058;2023-06-14T06:28:11;16.50;99.90
10042;DHT22;5061;49.068;12.058;2023-06-14T06:31:31;16.40;99.90
10042;DHT22;5061;49.068;12.058;2023-06-14T06:34:52;16.50;99.90
10042;DHT22;5061;49.068;12.058;2023-06-14T06:38:13;16.40;99.90
10042;DHT22;5061;49.068;12.058;2023-06-14T06:41:34;16.40;99.90
10042;DHT22;5061;49.068;12.058;2023-06-14T06:44:56;16.40;99.90
10042;DHT22;5061;49.068;12.058;2023-06-14T06:48:17;16.40;99.90
10042;DHT22;5061;49.068;12.058;2023-06-14T06:51:41;16.50;99.90
10042;DHT22;5061;49.068;12.058;2023-06-14T06:55:02;16.50;99.90
10042;DHT22;5061;49.068;12.058;2023-06-14T06:58:23;16.50;99.90
10042;DHT22;5061;49.068;12.058;2023-06-14T07:01:44;16.60;99.90
10042;DHT22;5061;49.068;12.058;2023-06-14T07:05:04;16.60;99.90
10042;DHT22;5061;49.068;12.058;2023-06-14T07:08:26;16.70;99.90
10042;DHT22;5061;49.068;12.058;2023-06-14T07:11:47;16.70;99.90
10042;DHT22;5061;49.068;12.058;2023-06-14T07:15:08;16.80;99.90
10042;DHT22;5061;49.068;12.058;2023-06-14T07:18:29;16.90;99.90
10042;DHT22;5061;49.068;12.058;2023-06-14T07:21:50;17.00;99.90
10042;DHT22;5061;49.068;12.058;2023-06-14T07:25:12;17.10;99.90
10042;DHT22;5061;49.068;12.058;2023-06-14T07:28:36;17.20;99.90
10042;DHT22;5061;49.068;12.058;2023-06-14T07:31:56;17.30;99.90
10042;DHT22;5061;49.068;12.058;2023-06-14T07:35:17;17.50;99.90
10042;DHT22;5061;49.068;12.058;2023-06-14T07:38:37;17.60;99.90
10042;DHT22;5061;49.068;12.058;2023-06-14T07:41:58;17.70;99.90
10042;DHT22;5061;49.068;12.058;2023-06-14T07:45:19;17.80;99.90
10042;DHT22;5061;49.068;12.058;2023-06-14T07:48:40;17.90;99.90
10042;DHT22;5061;49.068;12.058;2023-06-14T07:52:01;18.10;99.90
10042;DHT22;5061;49.068;12.058;2023-06-14T07:55:21;18.20;99.90
10042;DHT22;5061;49.068;12.058;2023-06-14T07:58:42;18.40;99.90
10042;DHT22;5061;49.068;12.058;2023-06-14T08:02:03;18.60;99.90
10042;DHT22;5061;49.068;12.058;2023-06-14T08:05:25;18.60;99.90
10042;DHT22;5061;49.068;12.058;2023-06-14T08:08:46;18.80;99.90
10042;DHT22;5061;49.068;12.058;2023-06-14T08:12:07;18.90;99.90
10042;DHT22;5061;49.068;12.058;2023-06-14T08:15:30;19.00;99.90
10042;DHT22;5061;49.068;12.058;2023-06-14T08:18:50;19.20;99.90
10042;DHT22;5061;49.068;12.058;2023-06-14T08:22:11;19.30;99.90
10042;DHT22;5061;49.068;12.058;2023-06-14T08:25:32;19.40;99.90
10042;DHT22;5061;49.068;12.058;2023-06-14T08:28:53;19.50;99.90
10042;DHT22;5061;49.068;12.058;2023-06-14T08:32:14;19.70;99.90
10042;DHT22;5061;49.068;12.058;2023-06-14T08:35:35;19.80;99.90
10042;DHT22;5061;49.068;12.058;2023-06-14T08:38:57;20.00;99.90
10042;DHT22;5061;49.068;12.058;2023-06-14T08:42:19;20.10;99.90
10042;DHT22;5061;49.068;12.058;2023-06-14T08:45:41;20.30;99.90
10042;DHT22;5061;49.068;12.058;2023-06-14T08:49:02;20.50;99.90
10042;DHT22;5061;49.068;12.058;2023-06-14T08:52:27;20.50;99.90
10042;DHT22;5061;49.068;12.058;2023-06-14T08:55:50;20.60;99.90
10042;DHT22;5061;49.068;12.058;2023-06-14T08:59:11;20.70;99.90
10042;DHT22;5061;49.068;12.058;2023-06-14T09:02:32;20.70;99.90
10042;DHT22;5061;49.068;12.058;2023-06-14T09:05:56;20.70;99.90
10042;DHT22;5061;49.068;12.058;2023-06-14T09:09:22;20.70;99.90
10042;DHT22;5061;49.068;12.058;2023-06-14T09:12:43;20.70;99.90
10042;DHT22;5061;49.068;12.058;2023-06-14T09:16:04;20.60;99.90
10042;DHT22;5061;49.068;12.058;2023-06-14T09:19:25;20.70;99.90
10042;DHT22;5061;49.068;12.058;2023-06-14T09:22:46;20.80;99.90
10042;DHT22;5061;49.068;12.058;2023-06-14T09:26:14;21.10;99.90
10042;DHT22;5061;49.068;12.058;2023-06-14T09:29:35;21.30;99.90
10042;DHT22;5061;49.068;12.058;2023-06-14T09:32:55;21.30;99.90
10042;DHT22;5061;49.068;12.058;2023-06-14T09:36:18;21.30;99.90
10042;DHT22;5061;49.068;12.058;2023-06-14T09:39:51;21.20;99.90
10042;DHT22;5061;49.068;12.058;2023-06-14T09:43:12;21.20;99.90
10042;DHT22;5061;49.068;12.058;2023-06-14T09:46:34;21.20;99.90
10042;DHT22;5061;49.068;12.058;2023-06-14T09:49:55;21.30;99.90
10042;DHT22;5061;49.068;12.058;2023-06-14T09:53:16;21.50;99.90
10042;DHT22;5061;49.068;12.058;2023-06-14T09:56:42;21.70;99.90
10042;DHT22;5061;49.068;12.058;2023-06-14T10:00:05;21.80;99.90
10042;DHT22;5061;49.068;12.058;2023-06-14T10:03:31;21.90;99.90
10042;DHT22;5061;49.068;12.058;2023-06-14T10:06:52;21.90;99.90
10042;DHT22;5061;49.068;12.058;2023-06-14T10:10:14;21.90;99.90
10042;DHT22;5061;49.068;12.058;2023-06-14T10:13:35;21.90;99.90
10042;DHT22;5061;49.068;12.058;2023-06-14T10:17:07;21.90;99.90
10042;DHT22;5061;49.068;12.058;2023-06-14T10:20:35;21.90;99.90
10042;DHT22;5061;49.068;12.058;2023-06-14T10:24:01;22.10;99.90
10042;DHT22;5061;49.068;12.058;2023-06-14T10:27:23;22.10;99.90
10042;DHT22;5061;49.068;12.058;2023-06-14T10:34:29;22.60;99.90
10042;DHT22;5061;49.068;12.058;2023-06-14T10:37:52;22.70;99.90
10042;DHT22;5061;49.068;12.058;2023-06-14T10:41:13;22.70;99.90
10042;DHT22;5061;49.068;12.058;2023-06-14T10:44:37;22.70;99.90
10042;DHT22;5061;49.068;12.058;2023-06-14T10:47:58;22.70;99.90
10042;DHT22;5061;49.068;12.058;2023-06-14T10:51:20;22.60;99.90
10042;DHT22;5061;49.068;12.058;2023-06-14T10:54:56;22.60;99.90
10042;DHT22;5061;49.068;12.058;2023-06-14T10:58:19;22.50;99.90
10042;DHT22;5061;49.068;12.058;2023-06-14T11:05:28;22.40;99.90
10042;DHT22;5061;49.068;12.058;2023-06-14T11:12:40;22.40;99.90
10042;DHT22;5061;49.068;12.058;2023-06-14T11:16:02;22.40;99.90
10042;DHT22;5061;49.068;12.058;2023-06-14T11:19:30;22.50;99.90
10042;DHT22;5061;49.068;12.058;2023-06-14T11:22:51;22.60;99.90
10042;DHT22;5061;49.068;12.058;2023-06-14T11:26:12;22.80;99.90
10042;DHT22;5061;49.068;12.058;2023-06-14T11:29:32;23.00;99.90
10042;DHT22;5061;49.068;12.058;2023-06-14T11:32:54;23.00;99.90
10042;DHT22;5061;49.068;12.058;2023-06-14T11:36:15;23.00;99.90
10042;DHT22;5061;49.068;12.058;2023-06-14T11:39:36;23.10;99.90
10042;DHT22;5061;49.068;12.058;2023-06-14T11:43:01;23.20;99.90
10042;DHT22;5061;49.068;12.058;2023-06-14T11:46:22;23.20;99.90
10042;DHT22;5061;49.068;12.058;2023-06-14T11:49:46;23.10;99.90
10042;DHT22;5061;49.068;12.058;2023-06-14T11:53:06;23.10;99.90
10042;DHT22;5061;49.068;12.058;2023-06-14T11:56:29;23.20;99.90
10042;DHT22;5061;49.068;12.058;2023-06-14T11:59:50;23.30;99.90
10042;DHT22;5061;49.068;12.058;2023-06-14T12:03:11;23.50;99.90
10042;DHT22;5061;49.068;12.058;2023-06-14T12:06:33;23.80;99.90
10042;DHT22;5061;49.068;12.058;2023-06-14T12:13:17;24.50;99.90
10042;DHT22;5061;49.068;12.058;2023-06-14T12:16:39;24.80;99.90
10042;DHT22;5061;49.068;12.058;2023-06-14T12:20:06;24.90;99.90
10042;DHT22;5061;49.068;12.058;2023-06-14T12:23:43;24.90;99.90
10042;DHT22;5061;49.068;12.058;2023-06-14T12:27:04;24.80;99.90
10042;DHT22;5061;49.068;12.058;2023-06-14T12:30:26;24.70;99.90
10042;DHT22;5061;49.068;12.058;2023-06-14T12:33:46;24.60;99.90
10042;DHT22;5061;49.068;12.058;2023-06-14T12:37:09;24.60;99.90
10042;DHT22;5061;49.068;12.058;2023-06-14T12:40:30;24.60;99.90
10042;DHT22;5061;49.068;12.058;2023-06-14T12:43:51;24.40;99.90
10042;DHT22;5061;49.068;12.058;2023-06-14T12:47:12;24.30;99.90
10042;DHT22;5061;49.068;12.058;2023-06-14T12:50:33;24.30;99.90
10042;DHT22;5061;49.068;12.058;2023-06-14T12:53:54;24.20;99.90
10042;DHT22;5061;49.068;12.058;2023-06-14T12:57:14;24.10;99.90
10042;DHT22;5061;49.068;12.058;2023-06-14T13:00:35;24.10;99.90
10042;DHT22;5061;49.068;12.058;2023-06-14T13:03:56;24.00;99.90
10042;DHT22;5061;49.068;12.058;2023-06-14T13:07:17;24.00;99.90
10042;DHT22;5061;49.068;12.058;2023-06-14T13:10:40;24.10;99.90
10042;DHT22;5061;49.068;12.058;2023-06-14T13:14:01;24.40;99.90
10042;DHT22;5061;49.068;12.058;2023-06-14T13:17:21;24.60;99.90
10042;DHT22;5061;49.068;12.058;2023-06-14T13:20:42;24.90;99.90
10042;DHT22;5061;49.068;12.058;2023-06-14T13:24:03;24.90;99.90
10042;DHT22;5061;49.068;12.058;2023-06-14T13:27:25;24.90;99.90
10042;DHT22;5061;49.068;12.058;2023-06-14T13:30:46;24.90;99.90
10042;DHT22;5061;49.068;12.058;2023-06-14T13:34:07;25.10;99.90
10042;DHT22;5061;49.068;12.058;2023-06-14T13:37:27;25.50;99.90
10042;DHT22;5061;49.068;12.058;2023-06-14T13:40:48;25.70;99.90
10042;DHT22;5061;49.068;12.058;2023-06-14T13:44:09;26.10;99.90
10042;DHT22;5061;49.068;12.058;2023-06-14T13:47:32;26.60;99.90
10042;DHT22;5061;49.068;12.058;2023-06-14T13:50:52;27.00;99.90
10042;DHT22;5061;49.068;12.058;2023-06-14T13:54:14;27.30;99.90
10042;DHT22;5061;49.068;12.058;2023-06-14T13:57:37;27.60;99.90
10042;DHT22;5061;49.068;12.058;2023-06-14T14:00:57;27.70;99.90
10042;DHT22;5061;49.068;12.058;2023-06-14T14:04:20;27.90;99.90
10042;DHT22;5061;49.068;12.058;2023-06-14T14:07:40;28.10;99.90
10042;DHT22;5061;49.068;12.058;2023-06-14T14:11:01;28.30;99.90
10042;DHT22;5061;49.068;12.058;2023-06-14T14:14:22;28.30;99.90
10042;DHT22;5061;49.068;12.058;2023-06-14T14:17:46;28.50;99.90
10042;DHT22;5061;49.068;12.058;2023-06-14T14:21:10;28.70;99.90
10042;DHT22;5061;49.068;12.058;2023-06-14T14:24:31;28.90;99.90
10042;DHT22;5061;49.068;12.058;2023-06-14T14:27:51;29.10;99.90
10042;DHT22;5061;49.068;12.058;2023-06-14T14:31:12;29.20;99.90
10042;DHT22;5061;49.068;12.058;2023-06-14T14:34:33;29.20;99.90
10042;DHT22;5061;49.068;12.058;2023-06-14T14:37:53;29.00;99.90
10042;DHT22;5061;49.068;12.058;2023-06-14T14:41:14;28.70;99.90
10042;DHT22;5061;49.068;12.058;2023-06-14T14:44:35;28.50;99.90
10042;DHT22;5061;49.068;12.058;2023-06-14T14:47:56;28.50;99.90
10042;DHT22;5061;49.068;12.058;2023-06-14T14:51:16;28.40;99.90
10042;DHT22;5061;49.068;12.058;2023-06-14T14:54:37;28.20;99.90
10042;DHT22;5061;49.068;12.058;2023-06-14T14:57:57;27.90;99.90
10042;DHT22;5061;49.068;12.058;2023-06-14T15:01:18;27.60;99.90
10042;DHT22;5061;49.068;12.058;2023-06-14T15:04:39;27.30;99.90
10042;DHT22;5061;49.068;12.058;2023-06-14T15:07:59;27.00;99.90
10042;DHT22;5061;49.068;12.058;2023-06-14T15:11:20;26.80;99.90
10042;DHT22;5061;49.068;12.058;2023-06-14T15:14:40;26.80;99.90
10042;DHT22;5061;49.068;12.058;2023-06-14T15:18:01;26.80;99.90
10042;DHT22;5061;49.068;12.058;2023-06-14T15:21:22;26.80;99.90
10042;DHT22;5061;49.068;12.058;2023-06-14T15:24:43;26.80;99.90
10042;DHT22;5061;49.068;12.058;2023-06-14T15:28:04;26.80;99.90
10042;DHT22;5061;49.068;12.058;2023-06-14T15:31:27;26.80;99.90
10042;DHT22;5061;49.068;12.058;2023-06-14T15:34:49;26.80;99.90
10042;DHT22;5061;49.068;12.058;2023-06-14T15:38:10;26.80;99.90
10042;DHT22;5061;49.068;12.058;2023-06-14T15:41:30;26.80;99.90
10042;DHT22;5061;49.068;12.058;2023-06-14T15:44:51;26.70;99.90
10042;DHT22;5061;49.068;12.058;2023-06-14T15:48:12;26.50;99.90
10042;DHT22;5061;49.068;12.058;2023-06-14T15:51:32;26.40;99.90
10042;DHT22;5061;49.068;12.058;2023-06-14T15:54:53;26.20;99.90
10042;DHT22;5061;49.068;12.058;2023-06-14T15:58:13;26.00;99.90
10042;DHT22;5061;49.068;12.058;2023-06-14T16:01:34;25.80;99.90
10042;DHT22;5061;49.068;12.058;2023-06-14T16:04:55;25.70;99.90
10042;DHT22;5061;49.068;12.058;2023-06-14T16:08:16;25.50;99.90
10042;DHT22;5061;49.068;12.058;2023-06-14T16:11:36;25.40;99.90
10042;DHT22;5061;49.068;12.058;2023-06-14T16:14:57;25.30;99.90
10042;DHT22;5061;49.068;12.058;2023-06-14T16:18:17;25.10;99.90
10042;DHT22;5061;49.068;12.058;2023-06-14T16:21:39;25.00;99.90
10042;DHT22;5061;49.068;12.058;2023-06-14T16:24:59;24.90;99.90
10042;DHT22;5061;49.068;12.058;2023-06-14T16:28:20;24.80;99.90
10042;DHT22;5061;49.068;12.058;2023-06-14T16:31:40;24.70;99.90
10042;DHT22;5061;49.068;12.058;2023-06-14T16:35:01;24.60;99.90
10042;DHT22;5061;49.068;12.058;2023-06-14T16:38:21;24.50;99.90
10042;DHT22;5061;49.068;12.058;2023-06-14T16:41:42;24.40;99.90
10042;DHT22;5061;49.068;12.058;2023-06-14T16:45:03;24.30;99.90
10042;DHT22;5061;49.068;12.058;2023-06-14T16:48:23;24.20;99.90
10042;DHT22;5061;49.068;12.058;2023-06-14T16:51:44;24.10;99.90
10042;DHT22;5061;49.068;12.058;2023-06-14T16:55:06;24.10;99.90
10042;DHT22;5061;49.068;12.058;2023-06-14T16:58:27;23.90;99.90
10042;DHT22;5061;49.068;12.058;2023-06-14T17:01:50;23.80;99.90
10042;DHT22;5061;49.068;12.058;2023-06-14T17:05:11;23.80;99.90
10042;DHT22;5061;49.068;12.058;2023-06-14T17:08:32;23.80;99.90
10042;DHT22;5061;49.068;12.058;2023-06-14T17:11:53;23.70;99.90
10042;DHT22;5061;49.068;12.058;2023-06-14T17:15:14;23.70;99.90
10042;DHT22;5061;49.068;12.058;2023-06-14T17:18:34;23.60;99.90
10042;DHT22;5061;49.068;12.058;2023-06-14T17:21:55;23.50;99.90
10042;DHT22;5061;49.068;12.058;2023-06-14T17:25:16;23.40;99.90
10042;DHT22;5061;49.068;12.058;2023-06-14T17:28:36;23.30;99.90
10042;DHT22;5061;49.068;12.058;2023-06-14T17:31:57;23.20;99.90
10042;DHT22;5061;49.068;12.058;2023-06-14T17:35:18;23.10;99.90
10042;DHT22;5061;49.068;12.058;2023-06-14T17:38:39;23.00;99.90
10042;DHT22;5061;49.068;12.058;2023-06-14T17:41:59;22.80;99.90
10042;DHT22;5061;49.068;12.058;2023-06-14T17:45:20;22.70;99.90
10042;DHT22;5061;49.068;12.058;2023-06-14T17:48:41;22.60;99.90
10042;DHT22;5061;49.068;12.058;2023-06-14T17:52:01;22.60;99.90
10042;DHT22;5061;49.068;12.058;2023-06-14T17:55:22;22.40;99.90
10042;DHT22;5061;49.068;12.058;2023-06-14T17:58:42;22.30;99.90
10042;DHT22;5061;49.068;12.058;2023-06-14T18:02:03;22.30;99.90
10042;DHT22;5061;49.068;12.058;2023-06-14T18:05:24;22.20;99.90
10042;DHT22;5061;49.068;12.058;2023-06-14T18:08:49;22.10;99.90
10042;DHT22;5061;49.068;12.058;2023-06-14T18:12:10;22.00;99.90
10042;DHT22;5061;49.068;12.058;2023-06-14T18:15:31;21.90;99.90
10042;DHT22;5061;49.068;12.058;2023-06-14T18:18:51;21.90;99.90
10042;DHT22;5061;49.068;12.058;2023-06-14T18:22:12;21.80;99.90
10042;DHT22;5061;49.068;12.058;2023-06-14T18:25:33;21.80;99.90
10042;DHT22;5061;49.068;12.058;2023-06-14T18:28:54;21.70;99.90
10042;DHT22;5061;49.068;12.058;2023-06-14T18:32:15;21.60;99.90
10042;DHT22;5061;49.068;12.058;2023-06-14T18:35:35;21.60;99.90
10042;DHT22;5061;49.068;12.058;2023-06-14T18:38:56;21.50;99.90
10042;DHT22;5061;49.068;12.058;2023-06-14T18:42:17;21.40;99.90
10042;DHT22;5061;49.068;12.058;2023-06-14T18:45:37;21.40;99.90
10042;DHT22;5061;49.068;12.058;2023-06-14T18:48:58;21.20;99.90
10042;DHT22;5061;49.068;12.058;2023-06-14T18:52:20;21.20;99.90
10042;DHT22;5061;49.068;12.058;2023-06-14T18:55:41;21.10;99.90
10042;DHT22;5061;49.068;12.058;2023-06-14T18:59:04;20.90;99.90
10042;DHT22;5061;49.068;12.058;2023-06-14T19:02:24;20.80;99.90
10042;DHT22;5061;49.068;12.058;2023-06-14T19:05:45;20.80;99.90
10042;DHT22;5061;49.068;12.058;2023-06-14T19:09:06;20.70;99.90
10042;DHT22;5061;49.068;12.058;2023-06-14T19:12:26;20.60;99.90
10042;DHT22;5061;49.068;12.058;2023-06-14T19:15:47;20.50;99.90
10042;DHT22;5061;49.068;12.058;2023-06-14T19:19:13;20.40;99.90
10042;DHT22;5061;49.068;12.058;2023-06-14T19:22:34;20.30;99.90
10042;DHT22;5061;49.068;12.058;2023-06-14T19:25:56;20.20;99.90
10042;DHT22;5061;49.068;12.058;2023-06-14T19:29:16;20.20;99.90
10042;DHT22;5061;49.068;12.058;2023-06-14T19:32:40;20.10;99.90
10042;DHT22;5061;49.068;12.058;2023-06-14T19:36:01;20.00;99.90
10042;DHT22;5061;49.068;12.058;2023-06-14T19:39:25;19.90;99.90
10042;DHT22;5061;49.068;12.058;2023-06-14T19:42:45;19.80;99.90
10042;DHT22;5061;49.068;12.058;2023-06-14T19:46:06;19.70;99.90
10042;DHT22;5061;49.068;12.058;2023-06-14T19:49:26;19.70;99.90
10042;DHT22;5061;49.068;12.058;2023-06-14T19:52:47;19.60;99.90
10042;DHT22;5061;49.068;12.058;2023-06-14T19:56:07;19.50;99.90
10042;DHT22;5061;49.068;12.058;2023-06-14T19:59:28;19.50;99.90
10042;DHT22;5061;49.068;12.058;2023-06-14T20:02:51;19.40;99.90
10042;DHT22;5061;49.068;12.058;2023-06-14T20:06:12;19.30;99.90
10042;DHT22;5061;49.068;12.058;2023-06-14T20:09:33;19.30;99.90
10042;DHT22;5061;49.068;12.058;2023-06-14T20:12:54;19.20;99.90
10042;DHT22;5061;49.068;12.058;2023-06-14T20:16:15;19.20;99.90
10042;DHT22;5061;49.068;12.058;2023-06-14T20:19:36;19.10;99.90
10042;DHT22;5061;49.068;12.058;2023-06-14T20:22:57;19.00;99.90
10042;DHT22;5061;49.068;12.058;2023-06-14T20:26:17;19.00;99.90
10042;DHT22;5061;49.068;12.058;2023-06-14T20:29:38;18.90;99.90
10042;DHT22;5061;49.068;12.058;2023-06-14T20:32:59;18.90;99.90
10042;DHT22;5061;49.068;12.058;2023-06-14T20:36:19;18.80;99.90
10042;DHT22;5061;49.068;12.058;2023-06-14T20:39:41;18.80;99.90
10042;DHT22;5061;49.068;12.058;2023-06-14T20:43:02;18.70;99.90
10042;DHT22;5061;49.068;12.058;2023-06-14T20:46:26;18.70;99.90
10042;DHT22;5061;49.068;12.058;2023-06-14T20:49:48;18.60;99.90
10042;DHT22;5061;49.068;12.058;2023-06-14T20:53:09;18.60;99.90
10042;DHT22;5061;49.068;12.058;2023-06-14T20:56:30;18.50;99.90
10042;DHT22;5061;49.068;12.058;2023-06-14T20:59:53;18.50;99.90
10042;DHT22;5061;49.068;12.058;2023-06-14T21:03:14;18.40;99.90
10042;DHT22;5061;49.068;12.058;2023-06-14T21:06:35;18.40;99.90
10042;DHT22;5061;49.068;12.058;2023-06-14T21:09:59;18.30;99.90
10042;DHT22;5061;49.068;12.058;2023-06-14T21:13:20;18.30;99.90
10042;DHT22;5061;49.068;12.058;2023-06-14T21:16:40;18.30;99.90
10042;DHT22;5061;49.068;12.058;2023-06-14T21:20:01;18.20;99.90
10042;DHT22;5061;49.068;12.058;2023-06-14T21:23:22;18.20;99.90
10042;DHT22;5061;49.068;12.058;2023-06-14T21:26:43;18.10;99.90
10042;DHT22;5061;49.068;12.058;2023-06-14T21:30:04;18.10;99.90
10042;DHT22;5061;49.068;12.058;2023-06-14T21:33:25;18.00;99.90
10042;DHT22;5061;49.068;12.058;2023-06-14T21:36:45;18.00;99.90